sensor_id;sensor_type;location;lat;lon;timestamp;pressure;altitude;pressure_sealevel;temperature;humidity
61119;BME280;51448;51.660;5.824;2023-12-29T00:00:18;100669.50;;;11.05;99.10
61119;BME280;51448;51.660;5.824;2023-12-29T00:02:46;100686.16;;;11.06;98.89
61119;BME280;51448;51.660;5.824;2023-12-29T00:05:14;100687.84;;;11.07;99.16
61119;BME280;51448;51.660;5.824;2023-12-29T00:07:41;100679.81;;;11.12;98.97
61119;BME280;51448;51.660;5.824;2023-12-29T00:10:09;100663.28;;;11.08;99.13
61119;BME280;51448;51.660;5.824;2023-12-29T00:12:37;100662.47;;;11.06;99.25
61119;BME280;51448;51.660;5.824;2023-12-29T00:15:05;100660.63;;;11.08;99.18
61119;BME280;51448;51.660;5.824;2023-12-29T00:17:33;100658.03;;;11.06;99.57
61119;BME280;51448;51.660;5.824;2023-12-29T00:20:05;100658.16;;;11.03;99.80
61119;BME280;51448;51.660;5.824;2023-12-29T00:22:33;100661.53;;;11.07;99.49
61119;BME280;51448;51.660;5.824;2023-12-29T00:25:01;100657.19;;;11.06;99.55
61119;BME280;51448;51.660;5.824;2023-12-29T00:27:30;100662.47;;;11.06;99.88
61119;BME280;51448;51.660;5.824;2023-12-29T00:29:57;100653.63;;;11.07;99.81
61119;BME280;51448;51.660;5.824;2023-12-29T00:32:25;100658.03;;;11.06;99.98
61119;BME280;51448;51.660;5.824;2023-12-29T00:34:53;100655.47;;;11.05;100.00
61119;BME280;51448;51.660;5.824;2023-12-29T00:37:21;100651.06;;;11.05;100.00
61119;BME280;51448;51.660;5.824;2023-12-29T00:39:49;100640.69;;;11.01;100.00
61119;BME280;51448;51.660;5.824;2023-12-29T00:42:20;100654.03;;;10.95;100.00
61119;BME280;51448;51.660;5.824;2023-12-29T00:44:47;100652.53;;;10.87;100.00
61119;BME280;51448;51.660;5.824;2023-12-29T00:47:15;100641.38;;;10.79;100.00
61119;BME280;51448;51.660;5.824;2023-12-29T00:49:42;100631.06;;;10.73;100.00
61119;BME280;51448;51.660;5.824;2023-12-29T00:52:10;100622.44;;;10.68;100.00
61119;BME280;51448;51.660;5.824;2023-12-29T00:54:40;100611.22;;;10.63;100.00
61119;BME280;51448;51.660;5.824;2023-12-29T00:57:08;100620.97;;;10.59;100.00
61119;BME280;51448;51.660;5.824;2023-12-29T00:59:37;100622.81;;;10.56;100.00
61119;BME280;51448;51.660;5.824;2023-12-29T01:02:08;100636.94;;;10.53;100.00
61119;BME280;51448;51.660;5.824;2023-12-29T01:04:38;100640.50;;;10.52;100.00
61119;BME280;51448;51.660;5.824;2023-12-29T01:07:07;100633.53;;;10.50;100.00
61119;BME280;51448;51.660;5.824;2023-12-29T01:09:38;100627.53;;;10.46;100.00
61119;BME280;51448;51.660;5.824;2023-12-29T01:12:09;100611.03;;;10.41;100.00
61119;BME280;51448;51.660;5.824;2023-12-29T01:14:37;100624.94;;;10.44;100.00
61119;BME280;51448;51.660;5.824;2023-12-29T01:17:04;100619.88;;;10.38;100.00
61119;BME280;51448;51.660;5.824;2023-12-29T01:19:32;100626.03;;;10.37;100.00
61119;BME280;51448;51.660;5.824;2023-12-29T01:22:00;100614.78;;;10.34;100.00
61119;BME280;51448;51.660;5.824;2023-12-29T01:24:27;100615.69;;;10.31;100.00
61119;BME280;51448;51.660;5.824;2023-12-29T01:27:08;100626.28;;;10.28;100.00
61119;BME280;51448;51.660;5.824;2023-12-29T01:29:37;100639.44;;;10.28;100.00
61119;BME280;51448;51.660;5.824;2023-12-29T01:32:07;100642.94;;;10.27;100.00
61119;BME280;51448;51.660;5.824;2023-12-29T01:34:35;100631.53;;;10.28;100.00
61119;BME280;51448;51.660;5.824;2023-12-29T01:37:03;100622.03;;;10.24;100.00
61119;BME280;51448;51.660;5.824;2023-12-29T01:39:33;100628.47;;;10.14;100.00
61119;BME280;51448;51.660;5.824;2023-12-29T01:42:02;100622.44;;;10.10;100.00
61119;BME280;51448;51.660;5.824;2023-12-29T01:44:31;100620.09;;;10.01;100.00
61119;BME280;51448;51.660;5.824;2023-12-29T01:47:00;100636.88;;;9.95;100.00
61119;BME280;51448;51.660;5.824;2023-12-29T01:49:29;100598.47;;;9.91;100.00
61119;BME280;51448;51.660;5.824;2023-12-29T01:51:58;100631.16;;;9.81;100.00
61119;BME280;51448;51.660;5.824;2023-12-29T01:54:35;100629.53;;;9.77;100.00
61119;BME280;51448;51.660;5.824;2023-12-29T01:57:07;100628.75;;;9.73;100.00
61119;BME280;51448;51.660;5.824;2023-12-29T01:59:37;100617.44;;;9.70;100.00
61119;BME280;51448;51.660;5.824;2023-12-29T02:02:05;100628.88;;;9.69;100.00
61119;BME280;51448;51.660;5.824;2023-12-29T02:04:33;100625.44;;;9.66;100.00
61119;BME280;51448;51.660;5.824;2023-12-29T02:07:01;100615.81;;;9.65;100.00
61119;BME280;51448;51.660;5.824;2023-12-29T02:09:30;100608.88;;;9.63;100.00
61119;BME280;51448;51.660;5.824;2023-12-29T02:11:58;100607.13;;;9.63;100.00
61119;BME280;51448;51.660;5.824;2023-12-29T02:14:26;100607.28;;;9.57;100.00
61119;BME280;51448;51.660;5.824;2023-12-29T02:20:04;100619.75;;;9.49;100.00
61119;BME280;51448;51.660;5.824;2023-12-29T02:22:32;100618.06;;;9.48;100.00
61119;BME280;51448;51.660;5.824;2023-12-29T02:25:00;100607.47;;;9.51;100.00
61119;BME280;51448;51.660;5.824;2023-12-29T02:27:51;100611.81;;;9.52;100.00
61119;BME280;51448;51.660;5.824;2023-12-29T02:33:04;100613.66;;;9.49;100.00
61119;BME280;51448;51.660;5.824;2023-12-29T02:35:39;100617.13;;;9.49;100.00
61119;BME280;51448;51.660;5.824;2023-12-29T02:38:11;100608.44;;;9.47;100.00
61119;BME280;51448;51.660;5.824;2023-12-29T02:40:39;100600.50;;;9.50;100.00
61119;BME280;51448;51.660;5.824;2023-12-29T02:43:09;100601.38;;;9.49;100.00
61119;BME280;51448;51.660;5.824;2023-12-29T02:45:38;100601.31;;;9.52;100.00
61119;BME280;51448;51.660;5.824;2023-12-29T02:48:06;100601.34;;;9.51;100.00
61119;BME280;51448;51.660;5.824;2023-12-29T02:50:34;100602.97;;;9.56;100.00
61119;BME280;51448;51.660;5.824;2023-12-29T02:53:02;100590.66;;;9.58;100.00
61119;BME280;51448;51.660;5.824;2023-12-29T02:55:31;100601.97;;;9.60;100.00
61119;BME280;51448;51.660;5.824;2023-12-29T02:57:59;100598.41;;;9.61;100.00
61119;BME280;51448;51.660;5.824;2023-12-29T03:00:29;100603.59;;;9.64;100.00
61119;BME280;51448;51.660;5.824;2023-12-29T03:02:57;100603.59;;;9.64;100.00
61119;BME280;51448;51.660;5.824;2023-12-29T03:05:25;100593.94;;;9.65;100.00
61119;BME280;51448;51.660;5.824;2023-12-29T03:07:53;100600.84;;;9.69;100.00
61119;BME280;51448;51.660;5.824;2023-12-29T03:10:20;100603.34;;;9.74;100.00
61119;BME280;51448;51.660;5.824;2023-12-29T03:12:48;100597.19;;;9.75;100.00
61119;BME280;51448;51.660;5.824;2023-12-29T03:15:18;100602.13;;;9.85;100.00
61119;BME280;51448;51.660;5.824;2023-12-29T03:17:45;100594.09;;;9.90;100.00
61119;BME280;51448;51.660;5.824;2023-12-29T03:20:13;100586.03;;;9.96;100.00
61119;BME280;51448;51.660;5.824;2023-12-29T03:22:41;100587.69;;;10.00;100.00
61119;BME280;51448;51.660;5.824;2023-12-29T03:25:08;100589.38;;;10.03;100.00
61119;BME280;51448;51.660;5.824;2023-12-29T03:27:36;100589.31;;;10.04;100.00
61119;BME280;51448;51.660;5.824;2023-12-29T03:30:04;100591.00;;;10.07;100.00
61119;BME280;51448;51.660;5.824;2023-12-29T03:32:33;100591.88;;;10.07;100.00
61119;BME280;51448;51.660;5.824;2023-12-29T03:35:01;100589.13;;;10.11;100.00
61119;BME280;51448;51.660;5.824;2023-12-29T03:37:29;100596.16;;;10.10;100.00
61119;BME280;51448;51.660;5.824;2023-12-29T03:39:56;100592.53;;;10.14;100.00
61119;BME280;51448;51.660;5.824;2023-12-29T03:42:24;100581.00;;;10.18;100.00
61119;BME280;51448;51.660;5.824;2023-12-29T03:44:51;100588.94;;;10.17;100.00
61119;BME280;51448;51.660;5.824;2023-12-29T03:47:19;100596.75;;;10.20;100.00
61119;BME280;51448;51.660;5.824;2023-12-29T03:49:46;100580.13;;;10.19;100.00
61119;BME280;51448;51.660;5.824;2023-12-29T03:52:14;100576.69;;;10.17;100.00
61119;BME280;51448;51.660;5.824;2023-12-29T03:54:42;100573.25;;;10.15;100.00
61119;BME280;51448;51.660;5.824;2023-12-29T03:57:10;100584.59;;;10.16;100.00
61119;BME280;51448;51.660;5.824;2023-12-29T03:59:40;100588.13;;;10.15;100.00
61119;BME280;51448;51.660;5.824;2023-12-29T04:02:08;100575.88;;;10.15;100.00
61119;BME280;51448;51.660;5.824;2023-12-29T04:04:37;100584.50;;;10.19;100.00
61119;BME280;51448;51.660;5.824;2023-12-29T04:07:06;100579.25;;;10.19;100.00
61119;BME280;51448;51.660;5.824;2023-12-29T04:09:34;100587.94;;;10.21;100.00
61119;BME280;51448;51.660;5.824;2023-12-29T04:12:02;100577.34;;;10.24;100.00
61119;BME280;51448;51.660;5.824;2023-12-29T04:14:30;100577.31;;;10.25;100.00
61119;BME280;51448;51.660;5.824;2023-12-29T04:16:59;100577.25;;;10.27;100.00
61119;BME280;51448;51.660;5.824;2023-12-29T04:19:30;100580.69;;;10.29;100.00
61119;BME280;51448;51.660;5.824;2023-12-29T04:21:58;100579.81;;;10.30;100.00
61119;BME280;51448;51.660;5.824;2023-12-29T04:24:25;100564.00;;;10.32;100.00
61119;BME280;51448;51.660;5.824;2023-12-29T04:26:54;100578.03;;;10.31;100.00
61119;BME280;51448;51.660;5.824;2023-12-29T04:29:21;100571.94;;;10.30;100.00
61119;BME280;51448;51.660;5.824;2023-12-29T04:31:49;100569.25;;;10.32;100.00
61119;BME280;51448;51.660;5.824;2023-12-29T04:34:16;100570.97;;;10.33;100.00
61119;BME280;51448;51.660;5.824;2023-12-29T04:36:46;100567.50;;;10.32;100.00
61119;BME280;51448;51.660;5.824;2023-12-29T04:39:16;100580.69;;;10.31;100.00
61119;BME280;51448;51.660;5.824;2023-12-29T04:41:45;100569.19;;;10.33;100.00
61119;BME280;51448;51.660;5.824;2023-12-29T04:44:13;100571.91;;;10.32;100.00
61119;BME280;51448;51.660;5.824;2023-12-29T04:46:41;100578.91;;;10.31;100.00
61119;BME280;51448;51.660;5.824;2023-12-29T04:49:09;100570.13;;;10.32;100.00
61119;BME280;51448;51.660;5.824;2023-12-29T04:51:38;100568.34;;;10.33;100.00
61119;BME280;51448;51.660;5.824;2023-12-29T04:54:06;100573.63;;;10.31;100.00
61119;BME280;51448;51.660;5.824;2023-12-29T04:56:34;100576.34;;;10.30;100.00
61119;BME280;51448;51.660;5.824;2023-12-29T04:59:01;100584.97;;;10.33;100.00
61119;BME280;51448;51.660;5.824;2023-12-29T05:01:29;100577.09;;;10.33;100.00
61119;BME280;51448;51.660;5.824;2023-12-29T05:03:57;100578.03;;;10.31;100.00
61119;BME280;51448;51.660;5.824;2023-12-29T05:06:24;100585.09;;;10.28;100.00
61119;BME280;51448;51.660;5.824;2023-12-29T05:08:52;100597.38;;;10.30;100.00
61119;BME280;51448;51.660;5.824;2023-12-29T05:11:19;100598.22;;;10.28;100.00
61119;BME280;51448;51.660;5.824;2023-12-29T05:13:47;100611.53;;;10.24;100.00
61119;BME280;51448;51.660;5.824;2023-12-29T05:16:15;100589.56;;;10.25;100.00
61119;BME280;51448;51.660;5.824;2023-12-29T05:18:43;100590.53;;;10.22;100.00
61119;BME280;51448;51.660;5.824;2023-12-29T05:21:15;100602.72;;;10.25;100.00
61119;BME280;51448;51.660;5.824;2023-12-29T05:23:45;100597.41;;;10.26;100.00
61119;BME280;51448;51.660;5.824;2023-12-29T05:26:16;100607.94;;;10.26;100.00
61119;BME280;51448;51.660;5.824;2023-12-29T05:28:44;100605.25;;;10.28;100.00
61119;BME280;51448;51.660;5.824;2023-12-29T05:31:12;100590.34;;;10.28;100.00
61119;BME280;51448;51.660;5.824;2023-12-29T05:33:39;100596.56;;;10.26;100.00
61119;BME280;51448;51.660;5.824;2023-12-29T05:36:09;100591.38;;;10.23;100.00
61119;BME280;51448;51.660;5.824;2023-12-29T05:38:38;100605.44;;;10.22;100.00
61119;BME280;51448;51.660;5.824;2023-12-29T05:41:07;100594.94;;;10.22;100.00
61119;BME280;51448;51.660;5.824;2023-12-29T05:43:34;100593.28;;;10.19;100.00
61119;BME280;51448;51.660;5.824;2023-12-29T05:46:02;100598.53;;;10.19;100.00
61119;BME280;51448;51.660;5.824;2023-12-29T05:48:30;100603.81;;;10.18;100.00
61119;BME280;51448;51.660;5.824;2023-12-29T05:50:58;100601.19;;;10.18;100.00
61119;BME280;51448;51.660;5.824;2023-12-29T05:53:25;100591.56;;;10.17;100.00
61119;BME280;51448;51.660;5.824;2023-12-29T05:55:53;100590.72;;;10.16;100.00
61119;BME280;51448;51.660;5.824;2023-12-29T05:58:20;100602.09;;;10.17;100.00
61119;BME280;51448;51.660;5.824;2023-12-29T06:00:49;100601.19;;;10.18;100.00
61119;BME280;51448;51.660;5.824;2023-12-29T06:03:17;100604.72;;;10.17;100.00
61119;BME280;51448;51.660;5.824;2023-12-29T06:05:46;100591.56;;;10.17;100.00
61119;BME280;51448;51.660;5.824;2023-12-29T06:08:13;100608.25;;;10.16;100.00
61119;BME280;51448;51.660;5.824;2023-12-29T06:10:41;100605.63;;;10.16;100.00
61119;BME280;51448;51.660;5.824;2023-12-29T06:13:11;100596.81;;;10.17;100.00
61119;BME280;51448;51.660;5.824;2023-12-29T06:15:39;100597.75;;;10.16;100.00
61119;BME280;51448;51.660;5.824;2023-12-29T06:18:07;100593.34;;;10.16;100.00
61119;BME280;51448;51.660;5.824;2023-12-29T06:20:34;100594.97;;;10.20;100.00
61119;BME280;51448;51.660;5.824;2023-12-29T06:23:02;100589.75;;;10.19;100.00
61119;BME280;51448;51.660;5.824;2023-12-29T06:25:30;100592.31;;;10.22;100.00
61119;BME280;51448;51.660;5.824;2023-12-29T06:27:58;100591.50;;;10.20;100.00
61119;BME280;51448;51.660;5.824;2023-12-29T06:30:26;100600.19;;;10.22;100.00
61119;BME280;51448;51.660;5.824;2023-12-29T06:32:54;100599.38;;;10.20;100.00
61119;BME280;51448;51.660;5.824;2023-12-29T06:35:22;100612.41;;;10.23;100.00
61119;BME280;51448;51.660;5.824;2023-12-29T06:37:50;100603.72;;;10.21;100.00
61119;BME280;51448;51.660;5.824;2023-12-29T06:40:17;100596.81;;;10.17;100.00
61119;BME280;51448;51.660;5.824;2023-12-29T06:42:45;100596.16;;;10.10;100.00
61119;BME280;51448;51.660;5.824;2023-12-29T06:45:13;100597.19;;;10.04;100.00
61119;BME280;51448;51.660;5.824;2023-12-29T06:47:40;100587.63;;;10.02;100.00
61119;BME280;51448;51.660;5.824;2023-12-29T06:50:08;100579.91;;;9.97;100.00
61119;BME280;51448;51.660;5.824;2023-12-29T06:52:40;100587.84;;;9.94;100.00
61119;BME280;51448;51.660;5.824;2023-12-29T06:55:08;100581.72;;;9.95;100.00
61119;BME280;51448;51.660;5.824;2023-12-29T06:57:36;100573.88;;;9.94;100.00
61119;BME280;51448;51.660;5.824;2023-12-29T07:00:04;100578.28;;;9.93;100.00
61119;BME280;51448;51.660;5.824;2023-12-29T07:02:33;100579.97;;;9.94;100.00
61119;BME280;51448;51.660;5.824;2023-12-29T07:05:00;100590.44;;;9.96;100.00
61119;BME280;51448;51.660;5.824;2023-12-29T07:07:28;100575.59;;;9.95;100.00
61119;BME280;51448;51.660;5.824;2023-12-29T07:09:56;100586.13;;;9.95;100.00
61119;BME280;51448;51.660;5.824;2023-12-29T07:12:23;100578.22;;;9.95;100.00
61119;BME280;51448;51.660;5.824;2023-12-29T07:14:51;100594.81;;;9.97;100.00
61119;BME280;51448;51.660;5.824;2023-12-29T07:17:21;100593.00;;;9.99;100.00
61119;BME280;51448;51.660;5.824;2023-12-29T07:19:49;100590.22;;;10.03;100.00
61119;BME280;51448;51.660;5.824;2023-12-29T07:22:17;100590.22;;;10.03;100.00
61119;BME280;51448;51.660;5.824;2023-12-29T07:24:45;100574.47;;;10.03;100.00
61119;BME280;51448;51.660;5.824;2023-12-29T07:27:13;100566.59;;;10.03;100.00
61119;BME280;51448;51.660;5.824;2023-12-29T07:29:43;100558.69;;;10.03;100.00
61119;BME280;51448;51.660;5.824;2023-12-29T07:32:11;100558.66;;;10.05;100.00
61119;BME280;51448;51.660;5.824;2023-12-29T07:34:38;100560.31;;;10.07;100.00
61119;BME280;51448;51.660;5.824;2023-12-29T07:37:06;100577.88;;;10.07;100.00
61119;BME280;51448;51.660;5.824;2023-12-29T07:39:36;100576.06;;;10.09;100.00
61119;BME280;51448;51.660;5.824;2023-12-29T07:42:04;100573.44;;;10.09;100.00
61119;BME280;51448;51.660;5.824;2023-12-29T07:44:33;100559.41;;;10.08;100.00
61119;BME280;51448;51.660;5.824;2023-12-29T07:47:00;100556.59;;;10.15;100.00
61119;BME280;51448;51.660;5.824;2023-12-29T07:49:28;100567.09;;;10.15;100.00
61119;BME280;51448;51.660;5.824;2023-12-29T07:51:56;100570.53;;;10.17;100.00
61119;BME280;51448;51.660;5.824;2023-12-29T07:54:28;100566.16;;;10.17;100.00
61119;BME280;51448;51.660;5.824;2023-12-29T07:56:56;100572.28;;;10.18;100.00
61119;BME280;51448;51.660;5.824;2023-12-29T07:59:24;100568.72;;;10.19;100.00
61119;BME280;51448;51.660;5.824;2023-12-29T08:01:52;100576.63;;;10.19;100.00
61119;BME280;51448;51.660;5.824;2023-12-29T08:04:19;100569.63;;;10.19;100.00
61119;BME280;51448;51.660;5.824;2023-12-29T08:06:47;100588.88;;;10.20;100.00
61119;BME280;51448;51.660;5.824;2023-12-29T08:09:15;100574.75;;;10.22;100.00
61119;BME280;51448;51.660;5.824;2023-12-29T08:11:43;100569.47;;;10.24;100.00
61119;BME280;51448;51.660;5.824;2023-12-29T08:14:10;100589.63;;;10.23;100.00
61119;BME280;51448;51.660;5.824;2023-12-29T08:16:39;100601.81;;;10.26;100.00
61119;BME280;51448;51.660;5.824;2023-12-29T08:19:10;100597.44;;;10.25;100.00
61119;BME280;51448;51.660;5.824;2023-12-29T08:21:38;100586.91;;;10.26;100.00
61119;BME280;51448;51.660;5.824;2023-12-29T08:24:07;100572.78;;;10.31;100.00
61119;BME280;51448;51.660;5.824;2023-12-29T08:26:34;100573.59;;;10.33;100.00
61119;BME280;51448;51.660;5.824;2023-12-29T08:29:13;100573.56;;;10.34;100.00
61119;BME280;51448;51.660;5.824;2023-12-29T08:31:46;100584.06;;;10.34;100.00
61119;BME280;51448;51.660;5.824;2023-12-29T08:34:14;100572.63;;;10.35;100.00
61119;BME280;51448;51.660;5.824;2023-12-29T08:36:42;100583.06;;;10.38;100.00
61119;BME280;51448;51.660;5.824;2023-12-29T08:39:12;100593.59;;;10.38;100.00
61119;BME280;51448;51.660;5.824;2023-12-29T08:41:40;100602.28;;;10.40;100.00
61119;BME280;51448;51.660;5.824;2023-12-29T08:44:08;100595.28;;;10.39;100.00
61119;BME280;51448;51.660;5.824;2023-12-29T08:46:36;100590.00;;;10.41;100.00
61119;BME280;51448;51.660;5.824;2023-12-29T08:49:03;100590.84;;;10.41;100.00
61119;BME280;51448;51.660;5.824;2023-12-29T08:51:31;100605.78;;;10.41;100.00
61119;BME280;51448;51.660;5.824;2023-12-29T08:53:59;100609.25;;;10.41;100.00
61119;BME280;51448;51.660;5.824;2023-12-29T08:56:27;100596.88;;;10.45;100.00
61119;BME280;51448;51.660;5.824;2023-12-29T08:58:56;100597.69;;;10.47;100.00
61119;BME280;51448;51.660;5.824;2023-12-29T09:01:24;100609.97;;;10.46;100.00
61119;BME280;51448;51.660;5.824;2023-12-29T09:03:51;100617.84;;;10.48;100.00
61119;BME280;51448;51.660;5.824;2023-12-29T09:06:19;100601.09;;;10.51;100.00
61119;BME280;51448;51.660;5.824;2023-12-29T09:08:47;100599.28;;;10.53;100.00
61119;BME280;51448;51.660;5.824;2023-12-29T09:11:15;100605.31;;;10.56;100.00
61119;BME280;51448;51.660;5.824;2023-12-29T09:13:44;100614.09;;;10.55;100.00
61119;BME280;51448;51.660;5.824;2023-12-29T09:16:12;100630.72;;;10.56;100.00
61119;BME280;51448;51.660;5.824;2023-12-29T09:18:40;100597.47;;;10.55;100.00
61119;BME280;51448;51.660;5.824;2023-12-29T09:21:08;100610.59;;;10.55;100.00
61119;BME280;51448;51.660;5.824;2023-12-29T09:23:36;100616.69;;;10.57;100.00
61119;BME280;51448;51.660;5.824;2023-12-29T09:26:05;100609.69;;;10.56;100.00
61119;BME280;51448;51.660;5.824;2023-12-29T09:28:33;100622.81;;;10.56;100.00
61119;BME280;51448;51.660;5.824;2023-12-29T09:31:01;100612.38;;;10.54;100.00
61119;BME280;51448;51.660;5.824;2023-12-29T09:33:29;100630.72;;;10.56;100.00
61119;BME280;51448;51.660;5.824;2023-12-29T09:35:57;100630.72;;;10.56;100.00
61119;BME280;51448;51.660;5.824;2023-12-29T09:38:25;100636.13;;;10.51;100.00
61119;BME280;51448;51.660;5.824;2023-12-29T09:40:52;100630.22;;;10.44;100.00
61119;BME280;51448;51.660;5.824;2023-12-29T09:43:21;100639.25;;;10.36;100.00
61119;BME280;51448;51.660;5.824;2023-12-29T09:45:52;100642.06;;;10.28;100.00
61119;BME280;51448;51.660;5.824;2023-12-29T09:48:20;100637.00;;;10.22;100.00
61119;BME280;51448;51.660;5.824;2023-12-29T09:50:50;100644.91;;;10.20;100.00
61119;BME280;51448;51.660;5.824;2023-12-29T09:53:20;100643.09;;;10.22;100.00
61119;BME280;51448;51.660;5.824;2023-12-29T09:55:48;100638.81;;;10.20;100.00
61119;BME280;51448;51.660;5.824;2023-12-29T09:58:19;100646.69;;;10.20;100.00
61119;BME280;51448;51.660;5.824;2023-12-29T10:00:51;100644.06;;;10.20;100.00
61119;BME280;51448;51.660;5.824;2023-12-29T10:03:18;100632.69;;;10.19;100.00
61119;BME280;51448;51.660;5.824;2023-12-29T10:05:50;100637.00;;;10.22;100.00
61119;BME280;51448;51.660;5.824;2023-12-29T10:08:22;100631.69;;;10.23;100.00
61119;BME280;51448;51.660;5.824;2023-12-29T10:10:51;100636.00;;;10.26;100.00
61119;BME280;51448;51.660;5.824;2023-12-29T10:13:21;100641.25;;;10.26;100.00
61119;BME280;51448;51.660;5.824;2023-12-29T10:15:58;100634.22;;;10.26;100.00
61119;BME280;51448;51.660;5.824;2023-12-29T10:18:53;100638.50;;;10.31;100.00
61119;BME280;51448;51.660;5.824;2023-12-29T10:24:26;100636.66;;;10.34;100.00
61119;BME280;51448;51.660;5.824;2023-12-29T10:26:54;100640.06;;;10.38;100.00
61119;BME280;51448;51.660;5.824;2023-12-29T10:29:23;100645.22;;;10.41;100.00
61119;BME280;51448;51.660;5.824;2023-12-29T10:31:52;100645.25;;;10.39;100.00
61119;BME280;51448;51.660;5.824;2023-12-29T10:34:24;100643.44;;;10.41;100.00
61119;BME280;51448;51.660;5.824;2023-12-29T10:36:59;100644.31;;;10.42;100.00
61119;BME280;51448;51.660;5.824;2023-12-29T10:39:35;100665.34;;;10.42;100.00
61119;BME280;51448;51.660;5.824;2023-12-29T10:42:07;100660.94;;;10.42;100.00
61119;BME280;51448;51.660;5.824;2023-12-29T10:44:37;100662.56;;;10.46;100.00
61119;BME280;51448;51.660;5.824;2023-12-29T10:47:09;100670.41;;;10.48;100.00
61119;BME280;51448;51.660;5.824;2023-12-29T10:49:38;100655.47;;;10.50;100.00
61119;BME280;51448;51.660;5.824;2023-12-29T10:52:14;100662.38;;;10.53;100.00
61119;BME280;51448;51.660;5.824;2023-12-29T10:54:43;100659.72;;;10.54;100.00
61119;BME280;51448;51.660;5.824;2023-12-29T10:57:12;100663.16;;;10.56;100.00
61119;BME280;51448;51.660;5.824;2023-12-29T10:59:41;100664.00;;;10.57;100.00
61119;BME280;51448;51.660;5.824;2023-12-29T11:02:11;100663.06;;;10.59;100.00
61119;BME280;51448;51.660;5.824;2023-12-29T11:04:43;100655.16;;;10.59;100.00
61119;BME280;51448;51.660;5.824;2023-12-29T11:07:12;100648.94;;;10.62;100.00
61119;BME280;51448;51.660;5.824;2023-12-29T11:09:41;100635.72;;;10.65;100.00
61119;BME280;51448;51.660;5.824;2023-12-29T11:12:09;100627.81;;;10.65;100.00
61119;BME280;51448;51.660;5.824;2023-12-29T11:14:37;100635.72;;;10.65;100.00
61119;BME280;51448;51.660;5.824;2023-12-29T11:17:15;100638.34;;;10.65;100.00
61119;BME280;51448;51.660;5.824;2023-12-29T11:19:46;100643.56;;;10.66;100.00
61119;BME280;51448;51.660;5.824;2023-12-29T11:22:17;100647.84;;;10.69;100.00
61119;BME280;51448;51.660;5.824;2023-12-29T11:24:47;100635.50;;;10.71;100.00
61119;BME280;51448;51.660;5.824;2023-12-29T11:27:16;100636.28;;;10.75;100.00
61119;BME280;51448;51.660;5.824;2023-12-29T11:29:45;100646.66;;;10.79;100.00
61119;BME280;51448;51.660;5.824;2023-12-29T11:32:18;100632.53;;;10.82;100.00
61119;BME280;51448;51.660;5.824;2023-12-29T11:35:00;100628.94;;;10.84;100.00
61119;BME280;51448;51.660;5.824;2023-12-29T11:41:03;100634.13;;;10.87;100.00
61119;BME280;51448;51.660;5.824;2023-12-29T11:43:36;100641.00;;;10.92;100.00
61119;BME280;51448;51.660;5.824;2023-12-29T11:46:04;100636.50;;;10.95;100.00
61119;BME280;51448;51.660;5.824;2023-12-29T11:48:54;100643.31;;;11.01;100.00
61119;BME280;51448;51.660;5.824;2023-12-29T11:54:03;100631.84;;;11.03;100.00
61119;BME280;51448;51.660;5.824;2023-12-29T12:01:55;100629.84;;;11.10;100.00
61119;BME280;51448;51.660;5.824;2023-12-29T12:04:41;100636.78;;;11.13;100.00
61119;BME280;51448;51.660;5.824;2023-12-29T12:07:16;100636.69;;;11.16;100.00
61119;BME280;51448;51.660;5.824;2023-12-29T12:09:51;100627.03;;;11.16;100.00
61119;BME280;51448;51.660;5.824;2023-12-29T12:12:41;100628.72;;;11.17;100.00
61119;BME280;51448;51.660;5.824;2023-12-29T12:18:02;100616.50;;;11.16;100.00
61119;BME280;51448;51.660;5.824;2023-12-29T12:20:34;100615.56;;;11.17;100.00
61119;BME280;51448;51.660;5.824;2023-12-29T12:23:03;100608.59;;;11.16;100.00
61119;BME280;51448;51.660;5.824;2023-12-29T12:25:39;100613.88;;;11.16;100.00
61119;BME280;51448;51.660;5.824;2023-12-29T12:28:08;100612.94;;;11.17;100.00
61119;BME280;51448;51.660;5.824;2023-12-29T12:30:37;100601.59;;;11.15;100.00
61119;BME280;51448;51.660;5.824;2023-12-29T12:33:04;100599.16;;;11.09;100.00
61119;BME280;51448;51.660;5.824;2023-12-29T12:35:33;100596.69;;;11.04;100.00
61119;BME280;51448;51.660;5.824;2023-12-29T12:38:12;100588.84;;;11.03;100.00
61119;BME280;51448;51.660;5.824;2023-12-29T12:40:42;100592.50;;;10.99;100.00
61119;BME280;51448;51.660;5.824;2023-12-29T12:43:15;100594.31;;;10.97;100.00
61119;BME280;51448;51.660;5.824;2023-12-29T12:45:52;100596.16;;;10.95;100.00
61119;BME280;51448;51.660;5.824;2023-12-29T12:48:44;100592.69;;;10.93;100.00
61119;BME280;51448;51.660;5.824;2023-12-29T12:51:14;100594.59;;;10.89;100.00
61119;BME280;51448;51.660;5.824;2023-12-29T12:53:42;100595.53;;;10.86;100.00
61119;BME280;51448;51.660;5.824;2023-12-29T12:56:14;100591.22;;;10.85;100.00
61119;BME280;51448;51.660;5.824;2023-12-29T12:58:42;100588.56;;;10.85;100.00
61119;BME280;51448;51.660;5.824;2023-12-29T13:01:10;100592.91;;;10.86;100.00
61119;BME280;51448;51.660;5.824;2023-12-29T13:03:42;100587.75;;;10.83;100.00
61119;BME280;51448;51.660;5.824;2023-12-29T13:06:10;100588.78;;;10.79;100.00
61119;BME280;51448;51.660;5.824;2023-12-29T13:08:39;100572.25;;;10.74;100.00
61119;BME280;51448;51.660;5.824;2023-12-29T13:11:10;100581.97;;;10.72;100.00
61119;BME280;51448;51.660;5.824;2023-12-29T13:13:42;100587.34;;;10.69;100.00
61119;BME280;51448;51.660;5.824;2023-12-29T13:16:11;100578.69;;;10.65;100.00